Aérodrome :
LOGIN :

S'inscrire | Disclaimer

   EN    FR    IT 

 










Légende :    VFR   VFR Marginal   IFR   IFR Intensif   IFR Très Intensif
Visi : 
Plafond : 
>= 8 km
>= 3000ft
5 à 8 km
1000 à 3000 ft
1500m à 5 km
500 à 1000 ft
800 à 1500m
200 à 500 ft
< 800m
< 200 ft
Symboles :   Orages  Brouillard  Fortes neiges  Fortes précipitations  Vent > 20 kt
SIGMETs :   Divers  Orages  Givrage  Turbulence  Onde Orograph.  Cendres Volcan.







- Altitude de l'aérodrome : 768 ft
- Code IATA : MXP


LIMC - Milano Malpensa

DERNIER METAR :
  • 180250Z 29006KT 0050 R35R/0500N R17L/0550D R35L/0450N FG NSC 03/03 Q1009 NOSIG

METARs EXPIRÉS :
  • 180220Z 34006KT 0050 R35R/0500N R17L/0700N R35L/0450N FG NSC 04/04 Q1009 NOSIG
  • 180150Z 36003KT 0050 R35R/0375N R17L/0450N R35L/0375N FG NSC 03/03 Q1010 NOSIG
  • 180120Z 34003KT 310V010 0050 R35R/0300N R17L/0375N R35L/0300N FG NSC 03/02 Q1010 NOSIG
  • 180050Z VRB02KT 0050 R35R/0250N R17L/0300N R35L/0250N FG NSC 03/03 Q1010 NOSIG
  • 180020Z 35002KT 0100 R35R/0275N R17L/0300N R35L/0275N FG NSC 03/03 Q1010 NOSIG
  • 172350Z 34003KT 0300 R35R/0450D R17L/0450N R35L/P1500N FG NSC 04/03 Q1010 NOSIG

TAF TAF LIMC
Valide du 18 à 00h jusqu'au 19 à 06h UTC


172300Z 1800/1906 VRB05KT 3500 BR SCT010 BKN060
TEMPO 1800/1806 1200 BCFG BKN010
BECMG 1804/1806 35015KT CAVOK
BECMG 1812/1814 VRB05KT
Pas de NOTAMs connus pour ce terrain.



MET'MAP, la Météo Aéronautique d'un coup d'oeil ! - Copyright ORBIFLY Décembre 2007 - Disclaimer

ORBIFLY MET'MAP TEAM :

Programmation & Développement : Alexandra Zaïnal
Conception & Développement : Baudouin d'Aumeries
Co-Programmation & Développement : Marc-Olivier Méhu
Soutien technique & logistique : Manuel Goepfert

Contact : metmap@orbifly.com




SOURCES & CREDITS :

   NOAA